Terminal Aerodrome Forecast
Issued by NWS

Home | Current Version | Previous Version | Text Only | Print | Product List | Glossary On
Versions: 1 2 3 4 5 6 7 8 9 10 11 12
143
FTUS44 KSJT 092345
TAFSOA
TAF
KSOA 092345Z 1000/1024 VRB05KT P6SM SKC
     FM101700 22008KT P6SM SKC=

USA.gov is the U.S. government's official web portal to all federal, state and local government web resources and services.